Time;durP1;ratioP1;P1;durP2;ratioP2;P2;SDS_P1;SDS_P2;PMS_P1;PMS_P2;Temp;Humidity;BMP_temperature;BMP_pressure;BME280_temperature;BME280_humidity;BME280_pressure;Samples;Min_cycle;Max_cycle;Signal;HPM_P1;HPM_P2
2024/01/09 00:00:27;;;;;;;8.50;4.18;;;;;;;;;;1043415;28;20468;-23
2024/01/09 00:00:58;;;;;;;2.03;1.92;;;;;;;;;;1043689;28;20131;-21
2024/01/09 00:01:28;;;;;;;23.50;4.88;;;;;;;;;;1043597;28;20025;-22
2024/01/09 00:01:59;;;;;;;5.28;2.83;;;;;;;;;;1043637;28;20021;-21
2024/01/09 00:02:29;;;;;;;2.72;2.53;;;;;;;;;;1043724;28;20060;-25
2024/01/09 00:03:00;;;;;;;6.70;6.05;;;;;;;;;;1043781;28;20025;-22
2024/01/09 00:03:30;;;;;;;9.48;4.95;;;;;;;;;;1043896;28;20492;-21
2024/01/09 00:04:01;;;;;;;14.48;5.55;;;;;;;;;;1043659;28;20025;-21
2024/01/09 00:04:31;;;;;;;6.63;4.10;;;;;;;;;;1043644;28;20120;-22
2024/01/09 00:05:01;;;;;;;8.25;4.13;;;;;;;;;;1043860;28;20428;-21
2024/01/09 00:05:32;;;;;;;3.13;2.75;;;;;;;;;;1043698;28;20016;-22
2024/01/09 00:06:02;;;;;;;8.35;3.70;;;;;;;;;;1042333;28;20051;-22
2024/01/09 00:06:33;;;;;;;3.60;2.67;;;;;;;;;;1043627;28;20508;-23
2024/01/09 00:07:03;;;;;;;6.43;5.70;;;;;;;;;;1043859;28;20032;-23
2024/01/09 00:07:34;;;;;;;3.85;3.55;;;;;;;;;;1043671;28;20127;-22
2024/01/09 00:08:04;;;;;;;1.80;1.67;;;;;;;;;;1043689;28;20025;-22
2024/01/09 00:08:35;;;;;;;6.63;4.22;;;;;;;;;;1043800;28;20021;-21
2024/01/09 00:09:05;;;;;;;6.65;4.63;;;;;;;;;;1043924;28;20083;-21
2024/01/09 00:09:36;;;;;;;2.85;2.40;;;;;;;;;;1043682;28;20449;-22
2024/01/09 00:10:07;;;;;;;5.05;3.47;;;;;;;;;;1043694;28;20040;-23
2024/01/09 00:10:38;;;;;;;2.95;2.45;;;;;;;;;;1043612;28;20070;-23
2024/01/09 00:11:11;;;;;;;1.95;1.85;;;;;;;;;;1043689;28;20017;-22
2024/01/09 00:11:41;;;;;;;17.38;4.55;;;;;;;;;;1043222;28;20028;-21
2024/01/09 00:12:12;;;;;;;10.25;4.25;;;;;;;;;;1043848;28;20025;-23
2024/01/09 00:12:42;;;;;;;7.90;5.22;;;;;;;;;;1043641;28;20091;-21
2024/01/09 00:13:13;;;;;;;7.82;1.33;;;;;;;;;;1043727;28;20024;-23
2024/01/09 00:13:43;;;;;;;5.15;3.47;;;;;;;;;;1043609;28;20021;-22
2024/01/09 00:14:15;;;;;;;1.65;1.55;;;;;;;;;;1043635;28;20025;-23
2024/01/09 00:14:46;;;;;;;2.38;2.20;;;;;;;;;;1042665;28;20032;-23
2024/01/09 00:15:17;;;;;;;3.25;2.65;;;;;;;;;;1043726;28;20021;-23
2024/01/09 00:15:47;;;;;;;6.68;4.10;;;;;;;;;;1043488;28;20025;-23
2024/01/09 00:16:17;;;;;;;6.80;4.53;;;;;;;;;;1043511;28;20021;-22
2024/01/09 00:16:48;;;;;;;6.13;5.05;;;;;;;;;;1043529;28;20043;-22
2024/01/09 00:17:18;;;;;;;9.82;6.13;;;;;;;;;;1043806;28;20025;-23
2024/01/09 00:17:49;;;;;;;2.67;1.85;;;;;;;;;;1043534;28;20528;-22
2024/01/09 00:18:19;;;;;;;4.38;2.80;;;;;;;;;;1043720;28;20029;-22
2024/01/09 00:18:53;;;;;;;3.17;2.88;;;;;;;;;;1043780;28;20033;-22
2024/01/09 00:19:23;;;;;;;10.98;5.18;;;;;;;;;;1043700;28;20365;-23
2024/01/09 00:19:54;;;;;;;7.00;5.72;;;;;;;;;;1042960;28;20028;-23
2024/01/09 00:20:24;;;;;;;1.55;1.45;;;;;;;;;;1043212;28;20051;-23
2024/01/09 00:20:55;;;;;;;4.13;2.92;;;;;;;;;;1042921;28;20028;-21
2024/01/09 00:21:25;;;;;;;4.05;2.90;;;;;;;;;;1043598;28;20052;-22
2024/01/09 00:21:56;;;;;;;2.20;2.10;;;;;;;;;;1043288;28;20024;-23
2024/01/09 00:22:26;;;;;;;12.80;3.38;;;;;;;;;;1043506;28;20488;-22
2024/01/09 00:22:57;;;;;;;2.72;2.55;;;;;;;;;;1043694;28;20059;-23
2024/01/09 00:23:27;;;;;;;5.47;4.40;;;;;;;;;;1043796;28;20032;-22
2024/01/09 00:23:57;;;;;;;4.25;3.85;;;;;;;;;;1043640;28;20021;-23
2024/01/09 00:24:28;;;;;;;4.82;2.45;;;;;;;;;;1043582;28;20028;-22
2024/01/09 00:24:58;;;;;;;1.52;1.42;;;;;;;;;;1043735;28;20028;-23
2024/01/09 00:25:29;;;;;;;2.75;2.03;;;;;;;;;;1043703;28;20029;-22
2024/01/09 00:26:00;;;;;;;3.53;3.17;;;;;;;;;;1043086;28;20035;-23
2024/01/09 00:26:30;;;;;;;3.38;3.00;;;;;;;;;;1041862;28;20202;-22
2024/01/09 00:27:01;;;;;;;3.13;2.53;;;;;;;;;;1043200;28;20020;-22
2024/01/09 00:27:31;;;;;;;5.40;4.88;;;;;;;;;;1042065;28;20025;-23
2024/01/09 00:28:02;;;;;;;11.70;3.05;;;;;;;;;;1043616;28;20021;-23
2024/01/09 00:28:32;;;;;;;2.00;1.85;;;;;;;;;;1043788;28;20031;-24
2024/01/09 00:29:02;;;;;;;3.50;3.20;;;;;;;;;;1043824;28;20108;-22
2024/01/09 00:29:35;;;;;;;13.13;6.80;;;;;;;;;;1043536;28;20055;-22
2024/01/09 00:30:05;;;;;;;4.25;3.88;;;;;;;;;;1043492;28;20036;-23
2024/01/09 00:30:36;;;;;;;6.63;4.20;;;;;;;;;;1043332;28;20032;-23
2024/01/09 00:31:06;;;;;;;17.83;6.45;;;;;;;;;;1043533;28;20112;-23
2024/01/09 00:31:37;;;;;;;3.30;2.42;;;;;;;;;;1043628;28;20064;-21
2024/01/09 00:32:07;;;;;;;14.25;2.45;;;;;;;;;;1043718;28;20075;-23
2024/01/09 00:32:37;;;;;;;6.97;2.70;;;;;;;;;;1043610;28;20044;-23
2024/01/09 00:33:08;;;;;;;4.45;3.83;;;;;;;;;;1043786;28;20071;-22
2024/01/09 00:33:38;;;;;;;4.38;4.05;;;;;;;;;;1043605;28;20063;-23
2024/01/09 00:34:09;;;;;;;2.70;2.50;;;;;;;;;;1042982;28;20032;-22
2024/01/09 00:34:40;;;;;;;8.55;4.55;;;;;;;;;;1043197;28;20107;-21
2024/01/09 00:35:10;;;;;;;8.05;4.15;;;;;;;;;;1043187;28;20120;-23
2024/01/09 00:35:41;;;;;;;2.15;1.90;;;;;;;;;;1043318;28;20415;-22
2024/01/09 00:36:11;;;;;;;6.35;5.90;;;;;;;;;;1043601;28;20032;-22
2024/01/09 00:36:43;;;;;;;7.57;3.28;;;;;;;;;;1043145;28;20025;-22
2024/01/09 00:37:13;;;;;;;2.58;2.15;;;;;;;;;;1043427;28;20565;-23
2024/01/09 00:37:44;;;;;;;3.53;3.33;;;;;;;;;;1043200;28;20021;-22
2024/01/09 00:38:14;;;;;;;3.40;3.15;;;;;;;;;;1043395;28;20024;-22
2024/01/09 00:38:44;;;;;;;4.28;3.78;;;;;;;;;;1043642;28;20052;-21
2024/01/09 00:39:15;;;;;;;2.65;2.17;;;;;;;;;;1043625;28;20154;-22
2024/01/09 00:39:45;;;;;;;7.72;3.20;;;;;;;;;;1042482;28;20031;-23
2024/01/09 00:40:16;;;;;;;5.63;2.60;;;;;;;;;;1042598;28;20036;-22
2024/01/09 00:40:46;;;;;;;9.52;3.65;;;;;;;;;;1042512;28;20036;-23
2024/01/09 00:41:17;;;;;;;5.35;4.90;;;;;;;;;;1043513;28;20025;-22
2024/01/09 00:41:47;;;;;;;3.05;2.70;;;;;;;;;;1043259;28;20025;-22
2024/01/09 00:42:18;;;;;;;8.23;5.05;;;;;;;;;;1043767;28;20025;-22
2024/01/09 00:42:48;;;;;;;6.07;5.03;;;;;;;;;;1043753;28;20900;-23
2024/01/09 00:43:18;;;;;;;3.50;3.25;;;;;;;;;;1043717;28;20189;-23
2024/01/09 00:43:49;;;;;;;2.88;2.65;;;;;;;;;;1043556;28;20024;-22
2024/01/09 00:44:19;;;;;;;4.70;3.70;;;;;;;;;;1043656;28;20468;-22
2024/01/09 00:44:50;;;;;;;4.15;3.33;;;;;;;;;;1043543;28;20071;-22
2024/01/09 00:45:20;;;;;;;1.75;1.58;;;;;;;;;;1043555;28;20033;-23
2024/01/09 00:45:51;;;;;;;5.38;1.80;;;;;;;;;;1043438;28;20029;-23
2024/01/09 00:46:25;;;;;;;2.47;2.38;;;;;;;;;;1043272;28;20035;-22
2024/01/09 00:46:56;;;;;;;2.95;2.63;;;;;;;;;;1043228;28;20075;-22
2024/01/09 00:47:29;;;;;;;3.00;2.22;;;;;;;;;;1043628;28;20529;-22
2024/01/09 00:48:00;;;;;;;6.25;3.05;;;;;;;;;;1043287;28;20032;-22
2024/01/09 00:48:30;;;;;;;2.22;2.08;;;;;;;;;;1043551;28;20028;-21
2024/01/09 00:49:01;;;;;;;6.07;3.90;;;;;;;;;;1043684;28;20028;-22
2024/01/09 00:49:31;;;;;;;15.20;3.85;;;;;;;;;;1043332;28;20388;-22
2024/01/09 00:50:02;;;;;;;13.18;5.40;;;;;;;;;;1041902;28;20025;-23
2024/01/09 00:50:33;;;;;;;3.72;3.40;;;;;;;;;;1043429;28;20492;-23
2024/01/09 00:51:04;;;;;;;4.95;3.78;;;;;;;;;;1043661;28;20119;-21
2024/01/09 00:51:34;;;;;;;13.45;8.60;;;;;;;;;;1043456;28;20056;-23
2024/01/09 00:52:05;;;;;;;2.60;2.40;;;;;;;;;;1043404;28;20384;-22
2024/01/09 00:52:35;;;;;;;0.80;0.80;;;;;;;;;;1043568;28;20479;-23
2024/01/09 00:53:06;;;;;;;1.65;1.55;;;;;;;;;;1043753;28;20033;-23
2024/01/09 00:53:36;;;;;;;2.88;2.67;;;;;;;;;;1043465;28;20061;-23
2024/01/09 00:54:07;;;;;;;13.75;4.10;;;;;;;;;;1043300;28;20029;-22
2024/01/09 00:54:40;;;;;;;3.13;2.90;;;;;;;;;;1043240;28;20016;-20
2024/01/09 00:55:12;;;;;;;4.38;4.00;;;;;;;;;;1043316;28;20051;-23
2024/01/09 00:55:42;;;;;;;7.10;4.43;;;;;;;;;;1043240;28;20048;-23
2024/01/09 00:56:12;;;;;;;2.47;1.77;;;;;;;;;;1043448;28;20016;-23
2024/01/09 00:56:43;;;;;;;2.60;2.28;;;;;;;;;;1043082;28;20480;-23
2024/01/09 00:57:13;;;;;;;8.02;2.65;;;;;;;;;;1043503;28;20111;-23
2024/01/09 00:57:44;;;;;;;2.45;2.25;;;;;;;;;;1042860;28;20033;-21
2024/01/09 00:58:14;;;;;;;3.25;2.47;;;;;;;;;;1043378;28;20032;-22
2024/01/09 00:58:45;;;;;;;17.73;3.97;;;;;;;;;;1043425;28;20033;-23
2024/01/09 00:59:15;;;;;;;3.17;2.80;;;;;;;;;;1043622;28;20420;-21
2024/01/09 00:59:45;;;;;;;3.40;2.80;;;;;;;;;;1043531;28;20048;-23
2024/01/09 01:00:16;;;;;;;2.42;2.25;;;;;;;;;;1042089;28;20430;-22
2024/01/09 01:00:46;;;;;;;7.75;4.85;;;;;;;;;;1043532;28;20036;-21
2024/01/09 01:01:17;;;;;;;2.17;2.08;;;;;;;;;;1043469;28;20191;-21
2024/01/09 01:01:50;;;;;;;10.10;5.13;;;;;;;;;;1043522;28;20025;-21
2024/01/09 01:02:21;;;;;;;10.00;4.25;;;;;;;;;;1043540;28;20492;-23
2024/01/09 01:02:51;;;;;;;3.30;1.60;;;;;;;;;;1043695;28;20025;-21
2024/01/09 01:03:22;;;;;;;2.20;2.05;;;;;;;;;;1043641;28;20135;-22
2024/01/09 01:03:52;;;;;;;2.63;2.42;;;;;;;;;;1043465;28;20025;-21
2024/01/09 01:04:23;;;;;;;2.75;2.63;;;;;;;;;;1043477;28;20025;-23
2024/01/09 01:04:53;;;;;;;9.30;3.55;;;;;;;;;;1043612;28;20025;-22
2024/01/09 01:05:24;;;;;;;6.57;5.28;;;;;;;;;;1043684;28;20119;-22
2024/01/09 01:05:54;;;;;;;4.57;2.83;;;;;;;;;;1043206;28;20419;-21
2024/01/09 01:06:24;;;;;;;5.22;1.98;;;;;;;;;;1042919;28;20440;-23
2024/01/09 01:06:55;;;;;;;3.13;2.80;;;;;;;;;;1043658;28;20427;-22
2024/01/09 01:07:25;;;;;;;2.97;2.78;;;;;;;;;;1043233;28;20028;-23
2024/01/09 01:07:56;;;;;;;5.45;3.50;;;;;;;;;;1043084;28;20067;-23
2024/01/09 01:08:26;;;;;;;4.68;3.45;;;;;;;;;;1043301;28;20021;-23
2024/01/09 01:08:56;;;;;;;7.63;2.75;;;;;;;;;;1043293;28;20067;-20
2024/01/09 01:09:27;;;;;;;2.95;2.13;;;;;;;;;;1043498;28;20049;-23
2024/01/09 01:09:57;;;;;;;2.17;2.05;;;;;;;;;;1043445;28;20368;-21
2024/01/09 01:10:28;;;;;;;4.47;4.05;;;;;;;;;;1043470;28;20025;-23
2024/01/09 01:10:58;;;;;;;1.20;1.13;;;;;;;;;;1043306;28;20795;-23
2024/01/09 01:11:29;;;;;;;3.17;2.97;;;;;;;;;;1043167;28;20151;-22
2024/01/09 01:11:59;;;;;;;7.13;5.22;;;;;;;;;;1043548;28;20033;-22
2024/01/09 01:12:30;;;;;;;7.40;3.15;;;;;;;;;;1043462;28;20480;-23
2024/01/09 01:13:01;;;;;;;1.20;1.08;;;;;;;;;;1042889;28;20031;-23
2024/01/09 01:13:32;;;;;;;3.17;2.20;;;;;;;;;;1043433;28;20032;-23
2024/01/09 01:14:02;;;;;;;10.43;3.60;;;;;;;;;;1043572;28;20435;-23
2024/01/09 01:14:33;;;;;;;2.53;2.30;;;;;;;;;;1043088;28;20025;-22
2024/01/09 01:15:04;;;;;;;6.18;3.35;;;;;;;;;;1043284;28;20166;-22
2024/01/09 01:15:36;;;;;;;6.47;3.28;;;;;;;;;;1043235;28;20017;-22
2024/01/09 01:16:06;;;;;;;10.32;5.03;;;;;;;;;;1043319;28;20032;-22
2024/01/09 01:16:36;;;;;;;4.25;2.47;;;;;;;;;;1043073;28;20487;-23
2024/01/09 01:17:07;;;;;;;3.90;3.60;;;;;;;;;;1043591;28;20480;-21
2024/01/09 01:17:37;;;;;;;6.65;6.10;;;;;;;;;;1043603;28;20503;-22
2024/01/09 01:18:08;;;;;;;18.08;2.95;;;;;;;;;;1043528;28;20108;-23
2024/01/09 01:18:39;;;;;;;6.22;1.70;;;;;;;;;;1043448;28;20130;-21
2024/01/09 01:19:09;;;;;;;1.40;1.30;;;;;;;;;;1043033;28;20448;-22
2024/01/09 01:19:40;;;;;;;1.85;1.75;;;;;;;;;;1042955;28;20032;-21
2024/01/09 01:20:10;;;;;;;9.27;6.50;;;;;;;;;;1043529;28;20021;-22
2024/01/09 01:20:41;;;;;;;2.25;2.05;;;;;;;;;;1043263;28;20032;-22
2024/01/09 01:21:11;;;;;;;3.20;2.60;;;;;;;;;;1043462;28;20021;-23
2024/01/09 01:21:42;;;;;;;3.47;3.10;;;;;;;;;;1043354;28;20032;-22
2024/01/09 01:22:12;;;;;;;3.38;3.13;;;;;;;;;;1043517;28;20021;-22
2024/01/09 01:22:43;;;;;;;4.55;3.28;;;;;;;;;;1043443;28;20029;-23
2024/01/09 01:23:14;;;;;;;1.92;1.77;;;;;;;;;;1043553;28;20491;-20
2024/01/09 01:23:45;;;;;;;3.28;2.58;;;;;;;;;;1043222;28;20058;-23
2024/01/09 01:24:15;;;;;;;2.55;2.08;;;;;;;;;;1043483;28;20083;-22
2024/01/09 01:24:45;;;;;;;13.02;3.03;;;;;;;;;;1043557;28;20415;-21
2024/01/09 01:25:16;;;;;;;4.05;3.05;;;;;;;;;;1043435;28;20071;-23
2024/01/09 01:25:47;;;;;;;4.03;2.72;;;;;;;;;;1043341;28;20610;-22
2024/01/09 01:26:17;;;;;;;2.85;2.60;;;;;;;;;;1043013;28;20066;-20
2024/01/09 01:26:48;;;;;;;2.95;2.75;;;;;;;;;;1043175;28;20492;-23
2024/01/09 01:27:18;;;;;;;3.78;2.53;;;;;;;;;;1043496;28;20028;-22
2024/01/09 01:27:49;;;;;;;2.88;2.13;;;;;;;;;;1042960;28;20553;-22
2024/01/09 01:28:20;;;;;;;2.03;1.92;;;;;;;;;;1043418;28;20021;-21
2024/01/09 01:28:50;;;;;;;2.05;1.67;;;;;;;;;;1043468;28;20056;-21
2024/01/09 01:29:21;;;;;;;2.85;2.65;;;;;;;;;;1043510;28;20387;-22
2024/01/09 01:29:51;;;;;;;5.80;2.22;;;;;;;;;;1043257;28;20033;-21
2024/01/09 01:30:22;;;;;;;13.45;2.88;;;;;;;;;;1043398;28;20120;-23
2024/01/09 01:30:52;;;;;;;1.25;1.23;;;;;;;;;;1043421;28;20021;-22
2024/01/09 01:31:22;;;;;;;2.25;2.05;;;;;;;;;;1043102;28;20095;-22
2024/01/09 01:31:53;;;;;;;2.35;2.15;;;;;;;;;;1043412;28;20030;-20
2024/01/09 01:32:23;;;;;;;2.72;2.53;;;;;;;;;;1043585;28;20151;-21
2024/01/09 01:32:54;;;;;;;3.25;2.97;;;;;;;;;;1043598;28;20025;-19
2024/01/09 01:33:24;;;;;;;3.65;3.35;;;;;;;;;;1043451;28;20322;-23
2024/01/09 01:33:54;;;;;;;2.13;2.03;;;;;;;;;;1043320;28;20451;-22
2024/01/09 01:34:25;;;;;;;2.80;1.75;;;;;;;;;;1043533;28;20028;-21
2024/01/09 01:34:55;;;;;;;7.00;2.88;;;;;;;;;;1043650;28;20031;-23
2024/01/09 01:35:27;;;;;;;2.70;1.92;;;;;;;;;;1043120;28;20021;-21
2024/01/09 01:35:57;;;;;;;2.53;2.20;;;;;;;;;;1042843;28;20083;-23
2024/01/09 01:36:28;;;;;;;1.25;1.15;;;;;;;;;;1042789;28;20472;-22
2024/01/09 01:36:58;;;;;;;2.58;1.55;;;;;;;;;;1043126;28;20640;-20
2024/01/09 01:37:29;;;;;;;2.42;2.25;;;;;;;;;;1043181;28;20112;-21
2024/01/09 01:37:59;;;;;;;4.00;3.45;;;;;;;;;;1043378;28;20112;-23
2024/01/09 01:38:30;;;;;;;1.92;1.75;;;;;;;;;;1043526;28;20017;-23
2024/01/09 01:39:01;;;;;;;2.30;2.17;;;;;;;;;;1042486;28;20480;-22
2024/01/09 01:39:32;;;;;;;6.70;3.72;;;;;;;;;;1043029;28;20017;-21
2024/01/09 01:40:03;;;;;;;2.55;2.38;;;;;;;;;;1043124;28;20437;-23
2024/01/09 01:40:34;;;;;;;9.02;2.80;;;;;;;;;;1042984;28;20033;-23
2024/01/09 01:41:05;;;;;;;2.83;2.55;;;;;;;;;;1038059;28;20017;-22
2024/01/09 01:41:36;;;;;;;2.17;2.03;;;;;;;;;;1042589;28;20951;-21
2024/01/09 01:42:06;;;;;;;7.32;2.50;;;;;;;;;;1042944;28;20111;-21
2024/01/09 01:42:37;;;;;;;2.90;2.60;;;;;;;;;;1043159;28;20052;-21
2024/01/09 01:43:07;;;;;;;1.77;1.67;;;;;;;;;;1044209;28;20092;-21
2024/01/09 01:43:38;;;;;;;5.18;3.10;;;;;;;;;;1042728;28;20485;-22
2024/01/09 01:44:14;;;;;;;1.00;1.00;;;;;;;;;;1043644;28;20481;-22
2024/01/09 01:44:44;;;;;;;20.42;5.50;;;;;;;;;;1043827;28;20028;-21
2024/01/09 01:45:19;;;;;;;2.63;1.95;;;;;;;;;;1039754;28;20167;-21
2024/01/09 01:45:50;;;;;;;7.30;4.90;;;;;;;;;;1042146;28;20036;-22
2024/01/09 01:46:20;;;;;;;2.67;2.47;;;;;;;;;;1042787;28;20059;-22
2024/01/09 01:46:51;;;;;;;3.47;3.13;;;;;;;;;;1039152;28;20025;-22
2024/01/09 01:47:21;;;;;;;2.78;2.33;;;;;;;;;;1043765;28;20029;-23
2024/01/09 01:47:52;;;;;;;2.42;1.88;;;;;;;;;;1043663;28;20021;-22
2024/01/09 01:48:23;;;;;;;15.48;3.50;;;;;;;;;;1039850;28;20373;-23
2024/01/09 01:48:54;;;;;;;8.70;3.40;;;;;;;;;;1043021;28;20492;-21
2024/01/09 01:49:24;;;;;;;0.95;0.90;;;;;;;;;;1043609;28;20035;-24
2024/01/09 01:49:55;;;;;;;4.65;3.22;;;;;;;;;;1043104;28;20029;-24
2024/01/09 01:50:26;;;;;;;19.35;3.28;;;;;;;;;;1044083;28;20024;-23
2024/01/09 01:50:57;;;;;;;7.20;5.05;;;;;;;;;;1043777;28;20533;-23
2024/01/09 01:51:28;;;;;;;2.28;2.17;;;;;;;;;;1044210;28;20050;-24
2024/01/09 01:51:58;;;;;;;8.15;3.42;;;;;;;;;;1045136;28;20117;-21
2024/01/09 01:52:29;;;;;;;5.47;2.92;;;;;;;;;;1043843;28;20021;-23
2024/01/09 01:53:00;;;;;;;2.58;1.60;;;;;;;;;;1044157;28;20032;-24
2024/01/09 01:53:32;;;;;;;1.35;1.10;;;;;;;;;;1044464;28;20110;-24
2024/01/09 01:54:03;;;;;;;0.93;0.93;;;;;;;;;;1043963;28;20024;-23
2024/01/09 01:54:35;;;;;;;1.02;1.02;;;;;;;;;;1039405;28;20033;-23
2024/01/09 01:55:08;;;;;;;0.95;0.90;;;;;;;;;;1039061;28;20384;-21
2024/01/09 01:55:39;;;;;;;1.83;1.60;;;;;;;;;;1038992;28;20022;-23
2024/01/09 01:56:10;;;;;;;10.25;2.90;;;;;;;;;;1039876;28;20029;-23
2024/01/09 01:56:41;;;;;;;4.18;2.88;;;;;;;;;;1042860;28;20487;-22
2024/01/09 01:57:12;;;;;;;3.08;1.95;;;;;;;;;;1043703;28;20017;-24
2024/01/09 01:57:43;;;;;;;1.35;1.25;;;;;;;;;;1043200;28;20556;-23
2024/01/09 01:58:14;;;;;;;2.25;2.05;;;;;;;;;;1043865;28;20388;-21
2024/01/09 01:58:45;;;;;;;4.32;3.60;;;;;;;;;;1043829;28;20027;-22
2024/01/09 01:59:17;;;;;;;3.75;2.70;;;;;;;;;;1043842;28;20029;-22
2024/01/09 01:59:47;;;;;;;3.70;2.70;;;;;;;;;;1042816;28;20028;-24
2024/01/09 02:00:19;;;;;;;4.63;3.95;;;;;;;;;;1044035;28;20119;-22
2024/01/09 02:00:50;;;;;;;2.20;2.00;;;;;;;;;;1043879;28;20048;-23
2024/01/09 02:01:21;;;;;;;2.65;2.45;;;;;;;;;;1042967;28;20032;-21
2024/01/09 02:01:52;;;;;;;5.47;4.05;;;;;;;;;;1043817;28;20517;-22
2024/01/09 02:02:22;;;;;;;4.63;2.78;;;;;;;;;;1044034;28;20472;-24
2024/01/09 02:02:53;;;;;;;3.88;3.55;;;;;;;;;;1043767;28;20021;-22
2024/01/09 02:03:23;;;;;;;1.50;1.40;;;;;;;;;;1042334;28;20028;-23
2024/01/09 02:03:54;;;;;;;18.95;3.55;;;;;;;;;;1041406;28;20025;-22
2024/01/09 02:04:25;;;;;;;6.45;3.08;;;;;;;;;;1042764;28;20036;-22
2024/01/09 02:04:56;;;;;;;5.72;3.00;;;;;;;;;;1043040;28;20035;-23
2024/01/09 02:05:27;;;;;;;2.70;2.28;;;;;;;;;;1042244;28;20013;-21
2024/01/09 02:05:57;;;;;;;5.60;3.60;;;;;;;;;;1043593;28;20029;-22
2024/01/09 02:06:30;;;;;;;3.92;1.55;;;;;;;;;;1042957;28;20392;-24
2024/01/09 02:07:01;;;;;;;2.22;2.03;;;;;;;;;;1042566;28;20055;-23
2024/01/09 02:07:33;;;;;;;7.75;5.03;;;;;;;;;;1043259;28;20569;-23
2024/01/09 02:08:05;;;;;;;2.70;2.45;;;;;;;;;;1043528;28;20029;-22
2024/01/09 02:08:37;;;;;;;12.95;4.28;;;;;;;;;;1041671;28;20354;-22
2024/01/09 02:09:09;;;;;;;13.57;4.40;;;;;;;;;;1042159;28;20115;-22
2024/01/09 02:09:40;;;;;;;3.85;3.58;;;;;;;;;;1040845;28;20037;-22
2024/01/09 02:10:11;;;;;;;16.85;9.32;;;;;;;;;;1043335;28;20032;-22
2024/01/09 02:10:42;;;;;;;6.95;3.90;;;;;;;;;;1042483;28;20020;-23
2024/01/09 02:11:13;;;;;;;2.55;1.58;;;;;;;;;;1043108;28;20025;-22
2024/01/09 02:11:46;;;;;;;7.15;4.85;;;;;;;;;;1043000;28;20504;-22
2024/01/09 02:12:17;;;;;;;8.77;4.13;;;;;;;;;;1042642;28;20044;-22
2024/01/09 02:12:47;;;;;;;9.23;5.95;;;;;;;;;;1043342;28;20462;-22
2024/01/09 02:13:19;;;;;;;7.18;4.60;;;;;;;;;;1041764;28;20112;-21
2024/01/09 02:13:49;;;;;;;5.75;3.53;;;;;;;;;;1043536;28;20028;-22
2024/01/09 02:14:19;;;;;;;4.30;3.08;;;;;;;;;;1043602;28;20388;-22
2024/01/09 02:14:50;;;;;;;1.75;1.65;;;;;;;;;;1043972;28;20052;-23
2024/01/09 02:15:21;;;;;;;10.43;4.07;;;;;;;;;;1043537;28;20551;-22
2024/01/09 02:15:51;;;;;;;2.38;2.20;;;;;;;;;;1042755;28;20021;-21
2024/01/09 02:16:22;;;;;;;6.28;3.92;;;;;;;;;;1043817;28;20432;-21
2024/01/09 02:16:52;;;;;;;8.07;3.10;;;;;;;;;;1044027;28;20027;-21
2024/01/09 02:17:24;;;;;;;11.30;5.35;;;;;;;;;;1043891;28;20079;-22
2024/01/09 02:17:54;;;;;;;10.93;2.13;;;;;;;;;;1043297;28;20063;-22
2024/01/09 02:18:24;;;;;;;4.72;3.90;;;;;;;;;;1043439;28;20051;-22
2024/01/09 02:18:55;;;;;;;4.50;4.10;;;;;;;;;;1043914;28;20112;-23
2024/01/09 02:19:25;;;;;;;6.70;3.88;;;;;;;;;;1043808;28;20100;-21
2024/01/09 02:19:56;;;;;;;6.32;3.67;;;;;;;;;;1042198;28;20033;-22
2024/01/09 02:20:26;;;;;;;3.47;2.78;;;;;;;;;;1043445;28;20110;-23
2024/01/09 02:20:57;;;;;;;8.07;2.85;;;;;;;;;;1043352;28;20036;-23
2024/01/09 02:21:29;;;;;;;2.70;2.50;;;;;;;;;;1042963;28;20448;-21
2024/01/09 02:21:59;;;;;;;6.30;3.20;;;;;;;;;;1043014;28;20520;-21
2024/01/09 02:22:30;;;;;;;7.90;5.63;;;;;;;;;;1041167;28;20024;-22
2024/01/09 02:23:01;;;;;;;2.17;1.98;;;;;;;;;;1042907;28;20036;-20
2024/01/09 02:23:31;;;;;;;5.05;2.55;;;;;;;;;;1043203;28;20023;-23
2024/01/09 02:24:02;;;;;;;3.50;2.80;;;;;;;;;;1042035;28;20031;-21
2024/01/09 02:24:32;;;;;;;8.38;4.13;;;;;;;;;;1039533;28;20020;-22
2024/01/09 02:25:03;;;;;;;3.58;2.03;;;;;;;;;;1041543;28;20143;-24
2024/01/09 02:25:34;;;;;;;4.38;3.92;;;;;;;;;;1041875;28;20052;-24
2024/01/09 02:26:05;;;;;;;6.18;3.53;;;;;;;;;;1042689;28;20052;-22
2024/01/09 02:26:39;;;;;;;4.00;2.50;;;;;;;;;;1042343;28;20079;-23
2024/01/09 02:27:13;;;;;;;2.88;2.08;;;;;;;;;;1041443;28;20099;-23
2024/01/09 02:27:44;;;;;;;7.45;3.92;;;;;;;;;;1042162;28;20099;-21
2024/01/09 02:28:18;;;;;;;2.10;1.95;;;;;;;;;;1043219;28;20063;-24
2024/01/09 02:28:51;;;;;;;2.17;1.30;;;;;;;;;;1043197;28;20036;-23
2024/01/09 02:29:23;;;;;;;3.83;2.90;;;;;;;;;;1041110;28;20670;-23
2024/01/09 02:29:53;;;;;;;2.92;2.70;;;;;;;;;;1041422;28;20533;-23
2024/01/09 02:30:24;;;;;;;3.70;2.55;;;;;;;;;;1043117;28;20029;-22
2024/01/09 02:30:55;;;;;;;16.35;4.32;;;;;;;;;;1042508;28;20044;-24
2024/01/09 02:31:26;;;;;;;6.47;2.97;;;;;;;;;;1041462;28;20032;-24
2024/01/09 02:31:56;;;;;;;5.18;4.47;;;;;;;;;;1042858;28;20074;-22
2024/01/09 02:32:27;;;;;;;2.80;2.55;;;;;;;;;;1042477;28;20039;-22
2024/01/09 02:32:58;;;;;;;5.35;4.13;;;;;;;;;;1041700;28;20165;-20
2024/01/09 02:33:29;;;;;;;10.95;4.47;;;;;;;;;;1039629;28;20020;-24
2024/01/09 02:34:00;;;;;;;4.00;1.83;;;;;;;;;;1041707;28;20500;-21
2024/01/09 02:34:34;;;;;;;1.77;1.70;;;;;;;;;;1041153;28;20434;-23
2024/01/09 02:35:05;;;;;;;4.25;2.83;;;;;;;;;;1041357;28;20558;-22
2024/01/09 02:35:37;;;;;;;3.72;3.40;;;;;;;;;;1042205;28;20179;-23
2024/01/09 02:36:08;;;;;;;3.67;3.35;;;;;;;;;;1041667;28;20019;-23
2024/01/09 02:36:41;;;;;;;2.95;1.75;;;;;;;;;;1042631;28;20025;-22
2024/01/09 02:37:12;;;;;;;2.17;1.98;;;;;;;;;;1042791;28;20519;-22
2024/01/09 02:37:43;;;;;;;3.88;2.08;;;;;;;;;;1042302;28;20028;-22
2024/01/09 02:38:13;;;;;;;3.95;3.65;;;;;;;;;;1042664;28;20484;-22
2024/01/09 02:38:44;;;;;;;3.97;2.83;;;;;;;;;;1041986;28;20032;-22
2024/01/09 02:39:14;;;;;;;3.83;2.17;;;;;;;;;;1041864;28;20029;-22
2024/01/09 02:39:45;;;;;;;3.10;2.85;;;;;;;;;;1041892;28;20044;-22
2024/01/09 02:40:15;;;;;;;8.00;4.88;;;;;;;;;;1042027;28;20468;-21
2024/01/09 02:40:46;;;;;;;3.25;2.55;;;;;;;;;;1041726;28;20867;-22
2024/01/09 02:41:17;;;;;;;11.77;3.70;;;;;;;;;;1041606;28;20067;-21
2024/01/09 02:41:47;;;;;;;28.80;2.65;;;;;;;;;;1042021;28;20033;-22
2024/01/09 02:42:18;;;;;;;4.13;3.70;;;;;;;;;;1042836;28;20029;-23
2024/01/09 02:42:49;;;;;;;2.30;2.13;;;;;;;;;;1040477;28;20131;-20
2024/01/09 02:43:19;;;;;;;7.35;3.30;;;;;;;;;;1041667;28;20522;-23
2024/01/09 02:43:50;;;;;;;3.38;3.10;;;;;;;;;;1040976;28;20029;-23
2024/01/09 02:44:21;;;;;;;5.30;4.20;;;;;;;;;;1042124;28;20496;-21
2024/01/09 02:44:54;;;;;;;3.08;2.03;;;;;;;;;;1041810;28;20031;-20
2024/01/09 02:45:25;;;;;;;5.05;3.22;;;;;;;;;;1041000;28;20028;-23
2024/01/09 02:45:55;;;;;;;11.15;6.50;;;;;;;;;;1040452;28;20040;-21
2024/01/09 02:46:29;;;;;;;3.85;3.10;;;;;;;;;;1040463;28;20124;-23
2024/01/09 02:47:02;;;;;;;10.10;5.55;;;;;;;;;;1042289;28;20033;-22
2024/01/09 02:47:34;;;;;;;3.53;3.05;;;;;;;;;;1041811;28;20021;-22
2024/01/09 02:48:06;;;;;;;2.55;2.35;;;;;;;;;;1040964;28;20032;-20
2024/01/09 02:48:39;;;;;;;5.47;3.45;;;;;;;;;;1040351;28;20534;-22
2024/01/09 02:49:12;;;;;;;1.13;1.13;;;;;;;;;;1038198;28;20033;-23
2024/01/09 02:49:43;;;;;;;4.60;3.92;;;;;;;;;;1041370;28;20579;-22
2024/01/09 02:50:20;;;;;;;3.28;2.40;;;;;;;;;;1042839;28;20025;-23
2024/01/09 02:50:56;;;;;;;4.13;2.97;;;;;;;;;;1043277;28;20052;-23
2024/01/09 02:51:29;;;;;;;13.88;3.42;;;;;;;;;;1038586;28;20099;-22
2024/01/09 02:52:01;;;;;;;2.22;1.98;;;;;;;;;;1036647;28;20022;-23
2024/01/09 02:52:35;;;;;;;3.70;3.38;;;;;;;;;;1037603;28;20083;-22
2024/01/09 02:53:08;;;;;;;2.42;1.10;;;;;;;;;;1034120;28;20030;-23
2024/01/09 02:53:40;;;;;;;16.85;2.40;;;;;;;;;;1033837;28;20116;-21
2024/01/09 02:54:12;;;;;;;16.33;2.78;;;;;;;;;;1031505;28;20029;-22
2024/01/09 02:54:43;;;;;;;3.17;2.95;;;;;;;;;;1034075;28;20809;-22
2024/01/09 02:55:16;;;;;;;21.45;2.38;;;;;;;;;;1038553;28;20021;-24
2024/01/09 02:55:48;;;;;;;8.52;4.45;;;;;;;;;;1037492;28;20061;-21
2024/01/09 02:56:20;;;;;;;6.95;3.30;;;;;;;;;;1039436;28;20040;-23
2024/01/09 02:56:51;;;;;;;3.17;2.85;;;;;;;;;;1040739;28;20059;-21
2024/01/09 02:57:21;;;;;;;11.65;4.95;;;;;;;;;;1034478;28;20040;-21
2024/01/09 02:57:53;;;;;;;3.03;2.83;;;;;;;;;;1041755;28;20025;-23
2024/01/09 02:58:24;;;;;;;4.63;4.00;;;;;;;;;;1041573;28;20107;-23
2024/01/09 02:58:56;;;;;;;14.50;3.83;;;;;;;;;;1042072;28;21348;-21
2024/01/09 02:59:27;;;;;;;4.47;4.07;;;;;;;;;;1036494;28;20029;-23
2024/01/09 02:59:57;;;;;;;3.65;3.35;;;;;;;;;;1038912;28;20672;-23
2024/01/09 03:00:43;;;;;;;1.30;1.20;;;;;;;;;;1037932;28;20474;-23
2024/01/09 03:01:20;;;;;;;1.95;1.85;;;;;;;;;;1032171;28;20041;-21
2024/01/09 03:01:51;;;;;;;7.68;2.58;;;;;;;;;;1023767;28;20861;-21
2024/01/09 03:02:23;;;;;;;6.00;4.70;;;;;;;;;;1029849;28;20033;-23
2024/01/09 03:02:55;;;;;;;2.85;1.83;;;;;;;;;;1029990;28;20022;-21
2024/01/09 03:03:26;;;;;;;13.85;4.18;;;;;;;;;;1033613;28;20026;-23
2024/01/09 03:04:00;;;;;;;4.25;2.95;;;;;;;;;;1033870;28;20671;-23
2024/01/09 03:04:37;;;;;;;4.82;3.47;;;;;;;;;;1036204;28;20052;-22
2024/01/09 03:05:15;;;;;;;2.72;2.53;;;;;;;;;;1035799;28;20033;-23
2024/01/09 03:05:50;;;;;;;2.30;2.20;;;;;;;;;;1034248;28;20038;-21